Time;durP1;ratioP1;P1;durP2;ratioP2;P2;SDS_P1;SDS_P2;PMS_P1;PMS_P2;Temp;Humidity;BMP_temperature;BMP_pressure;BME280_temperature;BME280_humidity;BME280_pressure;Samples;Min_cycle;Max_cycle;Signal;HPM_P1;HPM_P2
2021/06/30 00:00:26;;;;;;;1.13;0.52;;;22.50;54.10;;;;;;5127755;27;20030;-51
2021/06/30 00:02:52;;;;;;;6.70;0.73;;;22.50;54.20;;;;;;5123796;27;20074;-50
2021/06/30 00:05:17;;;;;;;0.85;0.50;;;22.50;54.00;;;;;;5137770;27;20066;-51
2021/06/30 00:07:43;;;;;;;1.33;0.73;;;22.40;54.30;;;;;;5138509;27;20371;-54
2021/06/30 00:10:10;;;;;;;1.48;0.40;;;22.30;54.50;;;;;;5119920;27;20110;-52
2021/06/30 00:12:37;;;;;;;2.33;0.60;;;22.30;54.40;;;;;;5136105;27;20114;-52
2021/06/30 00:15:09;;;;;;;1.63;0.60;;;22.10;54.80;;;;;;5136998;27;20030;-51
2021/06/30 00:17:35;;;;;;;1.27;0.57;;;22.00;54.90;;;;;;5137135;27;20059;-52
2021/06/30 00:20:02;;;;;;;0.73;0.57;;;22.10;54.70;;;;;;5142461;27;20050;-55
2021/06/30 00:22:28;;;;;;;1.27;0.60;;;22.20;54.50;;;;;;5121574;27;20035;-53
2021/06/30 00:24:54;;;;;;;0.70;0.50;;;22.30;54.30;;;;;;5135358;27;20046;-54
2021/06/30 00:27:20;;;;;;;1.90;0.60;;;22.30;53.90;;;;;;5137280;27;20452;-55
2021/06/30 00:29:45;;;;;;;1.05;0.35;;;22.20;54.20;;;;;;5136780;27;20068;-56
2021/06/30 00:32:11;;;;;;;3.35;0.65;;;22.10;54.50;;;;;;5140063;27;20031;-53
2021/06/30 00:34:37;;;;;;;0.90;0.50;;;22.00;54.60;;;;;;5123154;27;20023;-51
2021/06/30 00:37:03;;;;;;;1.15;0.50;;;22.00;54.70;;;;;;5141582;27;20532;-52
2021/06/30 00:39:28;;;;;;;1.60;0.60;;;22.10;54.30;;;;;;5141947;27;20023;-54
2021/06/30 00:41:57;;;;;;;0.68;0.50;;;22.20;54.00;;;;;;5140316;27;20062;-52
2021/06/30 00:44:22;;;;;;;1.15;0.70;;;22.00;54.10;;;;;;5133075;27;20443;-43
2021/06/30 00:46:48;;;;;;;2.22;0.70;;;22.20;53.90;;;;;;5117495;27;20409;-44
2021/06/30 00:49:14;;;;;;;2.17;0.50;;;22.30;53.50;;;;;;5117124;27;20027;-44
2021/06/30 00:51:39;;;;;;;2.05;0.50;;;22.30;53.30;;;;;;5135466;27;20023;-48
2021/06/30 00:54:05;;;;;;;2.15;0.50;;;22.10;53.80;;;;;;5135078;27;20023;-43
2021/06/30 00:56:31;;;;;;;0.82;0.45;;;22.10;54.00;;;;;;5117118;27;20110;-43
2021/06/30 00:58:59;;;;;;;0.82;0.47;;;22.00;54.00;;;;;;5116669;27;20102;-44
2021/06/30 01:01:25;;;;;;;1.67;0.70;;;22.00;54.30;;;;;;5117211;27;20065;-44
2021/06/30 01:03:51;;;;;;;1.58;0.65;;;22.00;54.30;;;;;;5117185;27;20066;-45
2021/06/30 01:06:17;;;;;;;2.72;0.70;;;22.00;54.20;;;;;;5116286;27;20055;-45
2021/06/30 01:08:44;;;;;;;2.05;0.68;;;22.10;54.10;;;;;;5135588;27;20119;-47
2021/06/30 01:11:12;;;;;;;2.67;0.60;;;21.80;54.50;;;;;;5134549;27;20027;-50
2021/06/30 01:13:42;;;;;;;0.70;0.50;;;21.80;54.80;;;;;;5135548;27;20023;-45
2021/06/30 01:16:08;;;;;;;3.13;0.50;;;21.70;55.30;;;;;;5116492;27;20057;-46
2021/06/30 01:18:35;;;;;;;1.05;0.63;;;21.70;55.40;;;;;;5135462;27;20046;-48
2021/06/30 01:21:05;;;;;;;1.00;0.57;;;21.60;55.40;;;;;;5117052;27;20027;-44
2021/06/30 01:23:31;;;;;;;0.93;0.40;;;21.60;55.60;;;;;;5117221;27;20031;-49
2021/06/30 01:25:58;;;;;;;0.73;0.40;;;21.70;55.30;;;;;;5134999;27;20037;-43
2021/06/30 01:28:24;;;;;;;1.05;0.60;;;21.60;55.40;;;;;;5116704;27;20024;-45
2021/06/30 01:30:51;;;;;;;1.45;0.60;;;21.70;55.40;;;;;;5134606;27;20055;-43
2021/06/30 01:33:18;;;;;;;1.67;0.82;;;21.80;55.10;;;;;;5116164;27;20460;-44
2021/06/30 01:35:44;;;;;;;0.88;0.60;;;21.80;54.70;;;;;;5134965;27;20092;-42
2021/06/30 01:38:10;;;;;;;3.40;0.50;;;21.90;54.50;;;;;;5134760;27;20020;-47
2021/06/30 01:40:36;;;;;;;1.70;0.63;;;21.70;54.90;;;;;;5134607;27;20023;-46
2021/06/30 01:45:55;;;;;;;1.30;0.70;;;21.80;54.60;;;;;;5134828;27;20033;-45
2021/06/30 01:48:21;;;;;;;1.08;0.70;;;21.80;54.70;;;;;;5134122;27;20130;-44
2021/06/30 01:50:52;;;;;;;0.90;0.60;;;21.70;54.80;;;;;;5116399;27;20507;-43
2021/06/30 01:53:19;;;;;;;1.00;0.60;;;21.80;54.80;;;;;;5134669;27;20026;-45
2021/06/30 01:55:44;;;;;;;3.22;0.70;;;21.70;54.90;;;;;;5134526;27;20058;-44
2021/06/30 01:58:10;;;;;;;1.35;0.70;;;21.70;54.90;;;;;;5115564;27;20410;-46
2021/06/30 02:00:36;;;;;;;1.88;0.80;;;21.70;55.10;;;;;;5135013;27;20491;-44
2021/06/30 02:03:02;;;;;;;1.80;0.60;;;21.70;55.10;;;;;;5115545;27;20373;-44
2021/06/30 02:05:29;;;;;;;2.17;0.52;;;21.80;55.00;;;;;;5134376;27;20027;-46
2021/06/30 02:07:59;;;;;;;1.17;0.60;;;21.70;55.10;;;;;;5134779;27;20023;-43
2021/06/30 02:10:26;;;;;;;2.35;0.57;;;21.80;55.10;;;;;;5134087;27;20023;-45
2021/06/30 02:12:52;;;;;;;2.15;0.60;;;21.80;55.00;;;;;;5134115;27;20031;-43
2021/06/30 02:15:30;;;;;;;1.30;0.60;;;21.90;54.90;;;;;;5133644;27;20127;-44
2021/06/30 02:17:57;;;;;;;1.88;0.73;;;21.80;55.10;;;;;;5133787;27;20015;-43
2021/06/30 02:20:25;;;;;;;0.93;0.60;;;21.70;55.30;;;;;;5134516;27;20019;-48
2021/06/30 02:25:35;;;;;;;6.97;1.35;;;21.90;55.00;;;;;;5133950;27;20145;-43
2021/06/30 02:28:01;;;;;;;1.67;0.82;;;21.80;55.30;;;;;;5133606;27;20110;-45
2021/06/30 02:30:30;;;;;;;3.10;0.65;;;21.60;55.70;;;;;;5133664;27;20028;-44
2021/06/30 02:32:57;;;;;;;1.83;0.60;;;21.50;56.20;;;;;;5133989;27;20027;-44
2021/06/30 02:35:24;;;;;;;1.63;0.73;;;21.50;56.20;;;;;;5133042;27;20459;-49
2021/06/30 02:37:52;;;;;;;1.20;0.82;;;21.50;56.60;;;;;;5115533;27;20027;-44
2021/06/30 02:40:19;;;;;;;1.20;0.75;;;21.50;56.50;;;;;;5133225;27;20110;-42
2021/06/30 02:42:46;;;;;;;1.35;0.60;;;21.40;56.80;;;;;;5133537;27;20029;-44
2021/06/30 02:45:14;;;;;;;3.17;0.85;;;21.40;57.00;;;;;;5132962;27;20098;-44
2021/06/30 02:47:41;;;;;;;2.92;0.77;;;21.30;57.00;;;;;;5133282;27;20023;-42
2021/06/30 02:50:09;;;;;;;2.17;0.80;;;21.30;56.90;;;;;;5132927;27;20535;-46
2021/06/30 02:52:36;;;;;;;2.53;0.80;;;21.40;56.80;;;;;;5114926;27;20027;-43
2021/06/30 02:55:03;;;;;;;0.52;0.50;;;21.40;56.70;;;;;;5132811;27;20038;-44
2021/06/30 02:57:29;;;;;;;1.20;0.70;;;21.50;56.50;;;;;;5133111;27;20019;-46
2021/06/30 02:59:55;;;;;;;0.85;0.65;;;21.50;56.40;;;;;;5133765;27;20027;-42
2021/06/30 03:02:20;;;;;;;2.30;0.95;;;21.50;56.30;;;;;;5132502;27;20043;-46
2021/06/30 03:04:46;;;;;;;1.00;0.70;;;21.60;56.40;;;;;;5132979;27;20126;-45
2021/06/30 03:07:12;;;;;;;2.08;0.95;;;21.50;56.50;;;;;;5114639;27;20455;-46
2021/06/30 03:09:37;;;;;;;2.55;0.80;;;21.40;56.90;;;;;;5114701;27;20080;-46
2021/06/30 03:12:03;;;;;;;1.50;0.90;;;21.30;57.10;;;;;;5132300;27;20019;-47
2021/06/30 03:14:29;;;;;;;1.80;0.90;;;21.30;57.00;;;;;;5133057;27;20047;-47
2021/06/30 03:16:56;;;;;;;2.17;1.27;;;21.40;56.80;;;;;;5132722;27;20035;-44
2021/06/30 03:19:21;;;;;;;2.78;0.93;;;21.30;57.30;;;;;;5114224;27;20034;-45
2021/06/30 03:21:47;;;;;;;2.35;0.80;;;21.20;57.30;;;;;;5114354;27;20129;-50
2021/06/30 03:24:13;;;;;;;1.50;0.82;;;21.20;58.20;;;;;;5132812;27;20019;-43
2021/06/30 03:26:39;;;;;;;2.75;1.15;;;21.20;57.40;;;;;;5132635;27;20023;-43
2021/06/30 03:29:05;;;;;;;1.73;0.80;;;21.20;57.40;;;;;;5113730;27;20029;-43
2021/06/30 03:31:32;;;;;;;1.75;0.98;;;21.20;57.50;;;;;;5132526;27;20051;-42
2021/06/30 03:33:57;;;;;;;1.45;0.90;;;21.10;57.90;;;;;;5114081;27;20181;-44
2021/06/30 03:36:24;;;;;;;1.80;0.85;;;21.20;57.60;;;;;;5132429;27;20023;-44
2021/06/30 03:38:49;;;;;;;3.17;1.05;;;21.20;57.50;;;;;;5132542;27;20064;-47
2021/06/30 03:41:15;;;;;;;6.75;1.00;;;21.20;57.70;;;;;;5132496;27;20061;-45
2021/06/30 03:43:41;;;;;;;3.58;0.90;;;21.30;57.70;;;;;;5113773;27;20035;-47
2021/06/30 03:46:10;;;;;;;1.65;0.70;;;21.10;57.80;;;;;;5132074;27;20062;-45
2021/06/30 03:48:37;;;;;;;4.32;0.73;;;21.20;57.90;;;;;;5113651;27;20027;-46
2021/06/30 03:51:03;;;;;;;1.60;0.80;;;21.10;57.90;;;;;;5131990;27;20098;-48
2021/06/30 03:53:29;;;;;;;5.45;1.10;;;21.10;58.00;;;;;;5132192;27;20023;-45
2021/06/30 03:55:55;;;;;;;2.63;1.08;;;21.10;58.10;;;;;;5132363;27;20050;-48
2021/06/30 03:58:20;;;;;;;2.63;1.15;;;21.20;58.10;;;;;;5131828;27;20387;-44
2021/06/30 04:00:46;;;;;;;1.50;0.90;;;20.90;58.50;;;;;;5131974;27;20035;-44
2021/06/30 04:03:12;;;;;;;1.17;0.80;;;20.90;58.70;;;;;;5131512;27;20039;-45
2021/06/30 04:05:38;;;;;;;1.70;0.85;;;20.90;58.90;;;;;;5131403;27;20015;-45
2021/06/30 04:08:10;;;;;;;1.65;1.00;;;20.90;58.70;;;;;;5131567;27;20464;-50
2021/06/30 04:10:36;;;;;;;2.38;0.70;;;20.90;58.60;;;;;;5113486;28;20027;-45
2021/06/30 04:13:02;;;;;;;3.33;0.98;;;20.90;58.70;;;;;;5131808;27;20034;-41
2021/06/30 04:15:28;;;;;;;2.03;0.82;;;20.80;58.90;;;;;;5112981;27;20088;-42
2021/06/30 04:17:54;;;;;;;2.53;0.80;;;20.90;58.90;;;;;;5113319;28;20027;-46
2021/06/30 04:20:20;;;;;;;2.88;0.80;;;20.90;58.90;;;;;;5131316;27;20055;-46
2021/06/30 04:22:45;;;;;;;1.95;0.90;;;20.90;59.00;;;;;;5131539;28;20548;-45
2021/06/30 04:25:11;;;;;;;1.73;0.70;;;21.00;58.40;;;;;;5132296;28;20031;-42
2021/06/30 04:27:37;;;;;;;3.45;0.80;;;21.20;58.00;;;;;;5113674;28;20023;-44
2021/06/30 04:30:07;;;;;;;2.40;0.82;;;21.20;57.80;;;;;;5132008;28;20379;-44
2021/06/30 04:32:33;;;;;;;5.15;1.20;;;21.20;57.70;;;;;;5131737;28;20023;-42
2021/06/30 04:34:58;;;;;;;1.13;0.70;;;21.40;57.50;;;;;;5130936;28;20570;-42
2021/06/30 04:37:24;;;;;;;1.33;0.88;;;21.40;57.30;;;;;;5128758;28;20561;-44
2021/06/30 04:39:50;;;;;;;3.65;1.15;;;21.50;57.10;;;;;;5130900;28;20023;-44
2021/06/30 04:42:18;;;;;;;3.90;0.93;;;21.40;57.00;;;;;;5111565;28;20070;-47
2021/06/30 04:44:44;;;;;;;2.92;0.77;;;21.50;57.00;;;;;;5131637;28;20263;-45
2021/06/30 04:47:10;;;;;;;3.10;1.05;;;21.40;57.10;;;;;;5112433;28;20027;-50
2021/06/30 04:49:36;;;;;;;5.13;0.88;;;21.50;56.90;;;;;;5131291;28;20023;-45
2021/06/30 04:52:02;;;;;;;4.20;1.08;;;21.80;56.40;;;;;;5131654;28;20034;-44
2021/06/30 04:54:28;;;;;;;3.40;1.10;;;21.90;55.60;;;;;;5131253;28;20019;-43
2021/06/30 04:56:53;;;;;;;1.88;1.10;;;22.00;55.80;;;;;;5113531;28;20077;-45
2021/06/30 04:59:19;;;;;;;2.15;1.10;;;22.00;55.50;;;;;;5130722;28;20023;-47
2021/06/30 05:01:45;;;;;;;3.65;0.88;;;22.00;55.40;;;;;;5112524;28;20054;-48
2021/06/30 05:04:11;;;;;;;2.53;1.10;;;22.00;55.50;;;;;;5130469;28;20075;-45
2021/06/30 05:06:37;;;;;;;2.75;1.00;;;21.90;55.70;;;;;;5111839;28;20529;-43
2021/06/30 05:09:03;;;;;;;3.75;1.23;;;21.80;55.90;;;;;;5130242;28;20056;-48
2021/06/30 05:11:31;;;;;;;2.88;1.02;;;21.70;56.20;;;;;;5130164;28;20042;-45
2021/06/30 05:13:56;;;;;;;1.55;0.93;;;21.90;55.90;;;;;;5131241;28;20019;-46
2021/06/30 05:16:24;;;;;;;1.23;0.80;;;22.00;55.50;;;;;;5132152;27;20023;-43
2021/06/30 05:18:50;;;;;;;3.15;1.00;;;22.10;55.60;;;;;;5135839;27;20456;-47
2021/06/30 05:21:16;;;;;;;1.75;1.00;;;22.10;55.60;;;;;;5134794;27;20102;-45
2021/06/30 05:23:42;;;;;;;1.75;0.90;;;22.10;55.50;;;;;;5117282;27;20550;-44
2021/06/30 05:26:08;;;;;;;2.72;0.80;;;22.10;55.50;;;;;;5116703;27;20501;-51
2021/06/30 05:28:33;;;;;;;4.88;1.08;;;22.10;55.80;;;;;;5117092;27;20023;-47
2021/06/30 05:31:00;;;;;;;3.95;1.13;;;22.10;55.70;;;;;;5135695;27;20353;-44
2021/06/30 05:33:27;;;;;;;2.58;1.20;;;22.00;55.80;;;;;;5134464;27;20050;-46
2021/06/30 05:35:53;;;;;;;3.10;1.10;;;22.10;55.90;;;;;;5116856;27;20034;-43
2021/06/30 05:38:18;;;;;;;4.45;1.25;;;22.20;55.70;;;;;;5134117;27;20019;-45
2021/06/30 05:40:44;;;;;;;1.98;0.98;;;22.20;55.90;;;;;;5116139;27;20110;-49
2021/06/30 05:43:10;;;;;;;1.80;1.05;;;22.20;55.50;;;;;;5134320;27;20031;-49
2021/06/30 05:45:36;;;;;;;2.97;1.02;;;22.20;55.70;;;;;;5116403;27;20398;-45
2021/06/30 05:48:01;;;;;;;4.72;1.10;;;22.30;55.40;;;;;;5134800;27;20043;-44
2021/06/30 05:50:27;;;;;;;5.53;1.48;;;22.50;54.80;;;;;;5133792;27;20436;-46
2021/06/30 05:52:53;;;;;;;3.00;1.30;;;22.60;54.70;;;;;;5135184;27;20463;-49
2021/06/30 05:55:19;;;;;;;3.28;1.05;;;22.80;54.10;;;;;;5134403;27;20019;-48
2021/06/30 05:57:45;;;;;;;1.55;1.05;;;23.30;53.20;;;;;;5134627;27;20451;-44
2021/06/30 06:00:14;;;;;;;3.85;1.70;;;23.20;52.60;;;;;;5115089;27;20396;-54
2021/06/30 06:02:40;;;;;;;3.03;1.10;;;23.20;52.60;;;;;;5134933;27;20036;-47
2021/06/30 06:05:06;;;;;;;4.85;1.60;;;23.40;52.50;;;;;;5135202;27;20159;-47
2021/06/30 06:07:32;;;;;;;5.07;1.40;;;23.70;51.70;;;;;;5115591;27;20467;-43
2021/06/30 06:10:01;;;;;;;3.47;1.20;;;23.90;50.90;;;;;;5134782;27;20023;-45
2021/06/30 06:12:27;;;;;;;4.60;2.22;;;24.00;50.70;;;;;;5133972;27;20027;-45
2021/06/30 06:14:53;;;;;;;4.03;1.10;;;24.10;50.20;;;;;;5115745;27;20150;-46
2021/06/30 06:17:20;;;;;;;4.20;1.30;;;24.00;50.50;;;;;;5114580;27;20029;-46
2021/06/30 06:19:45;;;;;;;8.02;1.27;;;24.20;49.90;;;;;;5115917;27;20027;-45
2021/06/30 06:22:11;;;;;;;6.22;1.13;;;24.20;49.80;;;;;;5133666;27;20064;-50
2021/06/30 06:24:37;;;;;;;2.35;0.98;;;24.40;49.50;;;;;;5133345;27;20027;-46
2021/06/30 06:27:04;;;;;;;3.55;1.15;;;24.50;48.90;;;;;;5115429;27;20023;-47
2021/06/30 06:29:30;;;;;;;2.78;1.05;;;24.50;48.80;;;;;;5111239;27;20284;-46
2021/06/30 06:31:56;;;;;;;1.73;0.90;;;24.60;48.20;;;;;;5133447;27;20497;-51
2021/06/30 06:34:22;;;;;;;2.83;0.95;;;24.70;48.30;;;;;;5115574;27;20030;-44
2021/06/30 06:36:49;;;;;;;2.05;0.88;;;24.60;48.00;;;;;;5133466;27;20057;-46
2021/06/30 06:39:17;;;;;;;3.33;0.90;;;24.70;47.40;;;;;;5133073;27;20027;-50
2021/06/30 06:41:43;;;;;;;5.53;1.50;;;24.90;47.60;;;;;;5133224;27;20467;-44
2021/06/30 06:44:27;;;;;;;3.13;1.30;;;24.80;48.00;;;;;;5115593;27;20161;-50
2021/06/30 06:46:53;;;;;;;5.70;1.27;;;24.80;47.50;;;;;;5133064;27;20460;-44
2021/06/30 06:49:18;;;;;;;7.28;1.10;;;25.00;47.30;;;;;;5114608;27;20026;-46
2021/06/30 06:51:44;;;;;;;3.22;1.20;;;25.10;46.60;;;;;;5133893;27;20539;-45
2021/06/30 06:54:10;;;;;;;3.95;1.30;;;25.00;46.80;;;;;;5115375;27;20039;-46
2021/06/30 06:56:37;;;;;;;5.85;1.80;;;25.80;45.80;;;;;;5133322;27;20051;-46
2021/06/30 06:59:03;;;;;;;4.40;1.15;;;26.50;44.60;;;;;;5115302;27;20031;-48
2021/06/30 07:01:29;;;;;;;5.15;2.42;;;28.10;41.30;;;;;;5132547;27;20060;-47
2021/06/30 07:03:54;;;;;;;5.75;1.67;;;27.80;42.10;;;;;;5132915;27;20126;-51
2021/06/30 07:06:20;;;;;;;4.97;1.50;;;31.20;37.60;;;;;;5114367;27;20034;-45
2021/06/30 07:08:46;;;;;;;4.25;1.98;;;31.60;35.40;;;;;;5133150;27;20100;-49
2021/06/30 07:11:13;;;;;;;9.45;1.58;;;30.60;37.20;;;;;;5132599;27;20035;-51
2021/06/30 07:13:39;;;;;;;4.85;1.17;;;33.40;34.40;;;;;;5132698;27;20031;-50
2021/06/30 07:16:06;;;;;;;3.75;1.45;;;33.70;32.80;;;;;;5132626;27;20026;-46
2021/06/30 07:18:36;;;;;;;3.15;2.20;;;32.50;33.60;;;;;;5112804;27;20456;-48
2021/06/30 07:21:04;;;;;;;2.45;1.02;;;32.40;33.60;;;;;;5134211;27;20034;-45
2021/06/30 07:23:31;;;;;;;5.38;1.73;;;31.50;34.20;;;;;;5132574;27;20035;-49
2021/06/30 07:25:57;;;;;;;3.97;1.10;;;31.80;34.80;;;;;;5133254;27;20039;-47
2021/06/30 07:28:24;;;;;;;3.03;2.10;;;32.60;33.00;;;;;;5131840;27;20463;-45
2021/06/30 07:30:50;;;;;;;5.18;1.40;;;32.50;33.40;;;;;;5132425;27;20110;-49
2021/06/30 07:33:16;;;;;;;2.40;1.15;;;34.80;31.20;;;;;;5113694;27;20559;-48
2021/06/30 07:35:41;;;;;;;2.53;1.10;;;34.10;30.80;;;;;;5131997;27;20337;-45
2021/06/30 07:38:08;;;;;;;7.38;3.13;;;33.20;32.00;;;;;;5132505;27;20030;-47
2021/06/30 07:40:34;;;;;;;5.15;2.53;;;32.50;32.70;;;;;;5130779;27;20019;-47
2021/06/30 07:43:00;;;;;;;3.70;1.30;;;32.10;34.10;;;;;;5113687;27;20130;-47
2021/06/30 07:45:27;;;;;;;2.85;1.50;;;34.70;31.30;;;;;;5112767;27;20031;-47
2021/06/30 07:47:53;;;;;;;4.57;2.13;;;34.20;30.60;;;;;;5132018;27;20022;-49
2021/06/30 07:50:19;;;;;;;6.30;1.17;;;33.10;32.50;;;;;;5131584;27;20413;-48
2021/06/30 07:52:48;;;;;;;4.63;1.25;;;33.10;31.40;;;;;;5131909;27;20043;-49
2021/06/30 07:55:15;;;;;;;4.22;1.20;;;32.10;32.60;;;;;;5131857;27;20170;-50
2021/06/30 07:57:40;;;;;;;3.63;1.25;;;30.60;34.60;;;;;;5132005;27;20019;-49
2021/06/30 08:00:07;;;;;;;8.30;2.00;;;30.00;35.80;;;;;;5113116;27;20081;-38
2021/06/30 08:02:33;;;;;;;4.63;2.10;;;30.20;36.20;;;;;;5126668;27;20198;-40
2021/06/30 08:04:59;;;;;;;5.80;1.40;;;32.70;33.70;;;;;;5129725;27;20532;-38
2021/06/30 08:07:25;;;;;;;2.95;1.52;;;35.10;30.80;;;;;;5131088;27;20058;-38
2021/06/30 08:09:51;;;;;;;2.72;1.48;;;34.50;30.80;;;;;;5111454;27;20031;-45
2021/06/30 08:12:17;;;;;;;3.95;1.40;;;33.00;31.90;;;;;;5130117;27;20364;-43
2021/06/30 08:14:43;;;;;;;7.22;1.67;;;31.40;33.60;;;;;;5130245;27;20033;-37
2021/06/30 08:17:09;;;;;;;4.43;1.38;;;30.50;35.40;;;;;;5129591;27;20110;-37
2021/06/30 08:19:35;;;;;;;4.15;1.20;;;30.10;36.20;;;;;;5130754;27;20110;-38
2021/06/30 08:22:01;;;;;;;3.58;1.50;;;30.10;36.30;;;;;;5131467;28;20031;-38
2021/06/30 08:24:26;;;;;;;4.82;1.90;;;29.60;37.10;;;;;;5129678;28;20068;-39
2021/06/30 08:26:54;;;;;;;5.55;1.40;;;29.10;37.90;;;;;;5111053;28;20019;-38
2021/06/30 08:29:21;;;;;;;2.25;1.40;;;29.50;37.90;;;;;;5110668;28;20027;-37
2021/06/30 08:31:47;;;;;;;7.25;1.48;;;29.20;38.10;;;;;;5113399;28;20027;-38
2021/06/30 08:34:13;;;;;;;4.82;1.33;;;28.60;38.80;;;;;;5109779;28;20488;-37
2021/06/30 08:36:39;;;;;;;3.28;1.30;;;28.20;40.20;;;;;;5130271;28;20019;-38
2021/06/30 08:39:07;;;;;;;5.15;1.58;;;27.90;40.50;;;;;;5112290;28;20027;-46
2021/06/30 08:41:33;;;;;;;5.10;1.73;;;27.70;41.10;;;;;;5130460;28;20031;-39
2021/06/30 08:43:59;;;;;;;2.85;1.40;;;27.50;41.50;;;;;;5112344;28;20122;-39
2021/06/30 08:46:26;;;;;;;3.22;1.60;;;27.70;41.30;;;;;;5130654;28;20076;-38
2021/06/30 08:48:57;;;;;;;4.03;2.88;;;28.00;40.70;;;;;;5112114;28;20038;-44
2021/06/30 08:51:27;;;;;;;4.82;1.90;;;28.90;39.60;;;;;;5131313;27;20031;-38
2021/06/30 08:53:56;;;;;;;6.05;1.42;;;30.70;36.70;;;;;;5117597;27;20030;-37
2021/06/30 08:56:31;;;;;;;2.15;1.52;;;30.00;37.20;;;;;;5134514;27;20135;-41
2021/06/30 08:58:58;;;;;;;5.88;2.30;;;29.60;37.50;;;;;;5133308;27;20062;-60
2021/06/30 09:01:25;;;;;;;3.53;1.20;;;29.70;37.60;;;;;;5131665;27;20043;-59
2021/06/30 09:03:53;;;;;;;3.28;1.60;;;31.90;34.80;;;;;;5116582;27;20035;-59
2021/06/30 09:06:19;;;;;;;2.88;1.70;;;32.10;33.90;;;;;;5134136;27;20035;-58
2021/06/30 09:08:48;;;;;;;5.18;1.50;;;32.40;33.40;;;;;;5134305;27;20054;-59
2021/06/30 09:11:16;;;;;;;4.60;2.53;;;31.30;34.40;;;;;;5134779;27;20019;-59
2021/06/30 09:13:42;;;;;;;4.15;1.48;;;30.30;36.20;;;;;;5115260;27;20035;-59
2021/06/30 09:16:08;;;;;;;3.35;2.08;;;30.40;35.80;;;;;;5113742;27;20050;-59
2021/06/30 09:18:40;;;;;;;1.70;1.23;;;29.30;37.70;;;;;;5134019;27;20031;-59
2021/06/30 09:21:17;;;;;;;5.18;1.90;;;30.90;36.20;;;;;;5134165;27;20031;-60
2021/06/30 09:23:59;;;;;;;3.47;1.40;;;31.30;35.20;;;;;;5134041;27;20027;-56
2021/06/30 09:26:27;;;;;;;3.65;1.38;;;31.50;34.70;;;;;;5115458;27;20019;-58
2021/06/30 09:29:09;;;;;;;8.15;1.50;;;30.20;36.00;;;;;;5132141;27;20059;-57
2021/06/30 09:31:37;;;;;;;4.22;1.50;;;29.70;37.00;;;;;;5115185;27;20062;-58
2021/06/30 09:34:04;;;;;;;4.90;1.70;;;29.30;37.70;;;;;;5115718;27;20027;-55
2021/06/30 09:36:43;;;;;;;6.72;1.90;;;28.90;38.30;;;;;;5114916;27;20034;-57
2021/06/30 09:39:10;;;;;;;2.45;1.30;;;28.90;38.30;;;;;;5117540;27;20083;-57
2021/06/30 09:41:38;;;;;;;3.47;1.50;;;28.70;37.90;;;;;;5131705;27;20084;-57
2021/06/30 09:44:11;;;;;;;6.97;1.27;;;28.80;38.10;;;;;;5115680;27;20042;-57
2021/06/30 09:46:39;;;;;;;2.70;1.55;;;28.80;38.50;;;;;;5132456;27;20030;-59
2021/06/30 09:49:16;;;;;;;4.03;1.20;;;28.90;37.70;;;;;;5113473;27;20023;-58
2021/06/30 09:51:44;;;;;;;4.38;1.50;;;28.80;37.50;;;;;;5114569;27;20181;-58
2021/06/30 09:54:18;;;;;;;2.40;1.40;;;28.90;37.60;;;;;;5115383;27;20594;-58
2021/06/30 09:57:02;;;;;;;5.45;1.60;;;29.10;37.80;;;;;;5132107;27;20030;-60
2021/06/30 09:59:35;;;;;;;2.28;1.58;;;29.10;38.00;;;;;;5133220;27;20034;-59
2021/06/30 10:02:01;;;;;;;5.80;2.17;;;29.10;37.50;;;;;;5131213;27;20139;-56
2021/06/30 10:04:31;;;;;;;3.95;1.48;;;29.10;37.60;;;;;;5114246;27;20058;-54
2021/06/30 10:07:03;;;;;;;6.82;2.22;;;29.20;37.70;;;;;;5114753;27;20459;-57
2021/06/30 10:09:30;;;;;;;5.20;1.70;;;29.10;37.50;;;;;;5112644;27;20027;-57
2021/06/30 10:11:59;;;;;;;3.85;1.38;;;29.00;37.60;;;;;;5112476;27;20031;-59
2021/06/30 10:14:26;;;;;;;2.38;1.40;;;28.70;38.00;;;;;;5133033;27;20027;-60
2021/06/30 10:16:52;;;;;;;5.88;1.48;;;28.80;38.20;;;;;;5132643;27;20043;-57
2021/06/30 10:19:19;;;;;;;1.75;1.17;;;29.10;37.70;;;;;;5112500;27;20023;-60
2021/06/30 10:21:45;;;;;;;3.50;1.30;;;29.10;37.30;;;;;;5112098;27;20412;-59
2021/06/30 10:24:17;;;;;;;3.95;1.40;;;28.80;37.90;;;;;;5131018;27;20105;-56
2021/06/30 10:26:44;;;;;;;2.72;1.30;;;28.80;38.00;;;;;;5112782;27;20023;-59
2021/06/30 10:29:10;;;;;;;3.10;1.20;;;28.60;38.10;;;;;;5130812;27;20023;-57
2021/06/30 10:31:37;;;;;;;3.30;1.33;;;28.30;38.50;;;;;;5113727;27;20027;-58
2021/06/30 10:34:14;;;;;;;4.35;2.05;;;28.00;38.60;;;;;;5114201;27;20122;-59
2021/06/30 10:36:56;;;;;;;2.33;1.48;;;27.90;39.10;;;;;;5130289;27;20094;-59
2021/06/30 10:39:36;;;;;;;2.85;1.30;;;28.00;39.30;;;;;;5131954;27;20034;-57
2021/06/30 10:42:31;;;;;;;2.83;0.93;;;27.90;38.90;;;;;;5113770;27;20034;-59
2021/06/30 10:44:59;;;;;;;2.03;1.30;;;27.70;39.60;;;;;;5132965;27;20367;-58
2021/06/30 10:47:33;;;;;;;3.65;1.30;;;27.60;40.10;;;;;;5113432;27;20020;-59
2021/06/30 10:50:22;;;;;;;2.58;1.58;;;27.70;39.80;;;;;;5133407;27;20106;-57
2021/06/30 10:53:14;;;;;;;3.03;1.48;;;27.90;39.70;;;;;;5132429;27;20440;-58
2021/06/30 10:55:40;;;;;;;2.78;1.30;;;27.90;39.30;;;;;;5132674;27;20065;-57
2021/06/30 10:58:12;;;;;;;6.78;2.75;;;27.80;39.40;;;;;;5127115;27;20485;-59
2021/06/30 11:00:48;;;;;;;6.68;1.50;;;27.60;39.50;;;;;;5112726;27;20027;-57
2021/06/30 11:03:34;;;;;;;3.30;1.40;;;27.60;39.50;;;;;;5131954;27;20023;-56
2021/06/30 11:06:10;;;;;;;3.78;1.50;;;27.60;39.70;;;;;;5113994;27;20035;-57
2021/06/30 11:08:42;;;;;;;4.22;1.30;;;27.40;40.10;;;;;;5132211;27;20023;-57
2021/06/30 11:11:12;;;;;;;5.13;2.67;;;27.40;40.30;;;;;;5113691;27;20035;-57
2021/06/30 11:13:57;;;;;;;2.20;1.20;;;27.50;40.20;;;;;;5130909;27;20084;-59
2021/06/30 11:16:44;;;;;;;4.53;1.75;;;27.90;40.30;;;;;;5108821;27;20019;-60
2021/06/30 11:19:19;;;;;;;4.32;1.73;;;28.00;40.70;;;;;;5109871;27;20027;-60
2021/06/30 11:21:47;;;;;;;9.10;1.65;;;28.10;40.80;;;;;;5105493;28;20026;-60
2021/06/30 11:24:39;;;;;;;5.80;2.10;;;28.30;40.50;;;;;;5126746;27;20035;-58
2021/06/30 11:29:42;;;;;;;7.32;2.03;;;28.20;40.30;;;;;;5127334;27;20038;-55
2021/06/30 11:32:09;;;;;;;5.03;1.70;;;28.20;40.50;;;;;;5126943;27;20023;-59
2021/06/30 11:34:39;;;;;;;6.38;1.67;;;28.00;40.50;;;;;;5125154;27;20030;-57
2021/06/30 11:37:06;;;;;;;4.65;1.70;;;28.10;40.90;;;;;;5125369;27;20043;-58
2021/06/30 11:39:32;;;;;;;6.55;1.48;;;27.90;40.70;;;;;;5105090;27;20031;-60
2021/06/30 11:41:58;;;;;;;4.88;1.58;;;27.80;40.90;;;;;;5108355;27;20610;-61
2021/06/30 11:44:38;;;;;;;4.60;1.92;;;27.50;41.30;;;;;;5124943;27;20027;-59
2021/06/30 11:47:06;;;;;;;4.57;1.85;;;27.40;42.00;;;;;;5125727;27;20022;-58
2021/06/30 11:49:32;;;;;;;2.47;1.48;;;27.40;42.00;;;;;;5107034;27;20060;-61
2021/06/30 11:52:00;;;;;;;4.05;1.50;;;27.40;42.30;;;;;;5107349;27;20023;-58
2021/06/30 11:54:27;;;;;;;1.92;1.30;;;27.30;42.30;;;;;;5127329;27;20019;-60
2021/06/30 11:56:53;;;;;;;5.30;1.30;;;27.20;42.60;;;;;;5125338;27;20067;-59
2021/06/30 11:59:25;;;;;;;12.07;1.83;;;27.30;42.30;;;;;;5125089;27;20060;-63
2021/06/30 12:01:53;;;;;;;4.65;1.85;;;27.40;42.20;;;;;;5120782;27;20039;-58
2021/06/30 12:04:21;;;;;;;3.22;1.42;;;27.40;42.00;;;;;;5126908;27;20631;-55
2021/06/30 12:06:54;;;;;;;2.67;1.20;;;27.30;42.10;;;;;;5112378;27;20335;-59
2021/06/30 12:09:25;;;;;;;8.05;2.17;;;27.40;42.10;;;;;;5129824;27;20061;-57
2021/06/30 12:11:52;;;;;;;4.43;1.75;;;27.60;41.80;;;;;;5128778;27;20023;-59
2021/06/30 12:14:23;;;;;;;3.45;1.95;;;27.90;41.70;;;;;;5124623;27;20463;-59
2021/06/30 12:16:58;;;;;;;7.20;3.55;;;27.80;41.70;;;;;;5126369;27;20027;-61
2021/06/30 12:19:36;;;;;;;3.78;1.95;;;27.80;41.60;;;;;;5127905;27;20068;-58
2021/06/30 12:22:18;;;;;;;2.55;1.35;;;27.90;41.50;;;;;;5127481;27;20077;-61
2021/06/30 12:24:44;;;;;;;4.07;1.25;;;28.10;40.70;;;;;;5127284;27;20066;-59
2021/06/30 12:27:11;;;;;;;5.00;1.42;;;28.10;40.60;;;;;;5108635;28;20049;-59
2021/06/30 12:29:38;;;;;;;3.58;1.50;;;28.20;40.50;;;;;;5129961;28;20023;-59
2021/06/30 12:32:09;;;;;;;4.05;1.60;;;28.30;40.60;;;;;;5110374;28;20055;-58
2021/06/30 12:34:35;;;;;;;4.85;1.33;;;28.30;40.80;;;;;;5128301;28;20019;-59
2021/06/30 12:37:01;;;;;;;4.65;1.88;;;28.30;40.50;;;;;;5110572;28;20027;-57
2021/06/30 12:39:29;;;;;;;2.40;1.50;;;28.30;40.50;;;;;;5130740;28;20023;-61
2021/06/30 12:42:06;;;;;;;3.95;1.75;;;28.30;40.50;;;;;;5129488;28;20107;-58
2021/06/30 12:45:03;;;;;;;4.20;1.63;;;28.60;40.50;;;;;;5128239;28;20058;-58
2021/06/30 12:47:29;;;;;;;5.18;1.60;;;28.70;40.50;;;;;;5119397;28;20406;-58
2021/06/30 12:50:03;;;;;;;3.95;1.52;;;28.70;40.60;;;;;;5110658;28;20218;-60
2021/06/30 12:52:30;;;;;;;6.38;1.30;;;29.20;39.70;;;;;;5128278;28;20027;-58
2021/06/30 12:55:07;;;;;;;6.57;1.60;;;29.30;39.30;;;;;;5130580;28;20087;-59
2021/06/30 12:57:53;;;;;;;3.42;1.30;;;29.20;39.70;;;;;;5128054;28;20020;-60
2021/06/30 13:00:20;;;;;;;3.35;1.42;;;29.40;39.20;;;;;;5128407;28;20065;-60